Time;durP1;ratioP1;P1;durP2;ratioP2;P2;SDS_P1;SDS_P2;PMS_P1;PMS_P2;Temp;Humidity;BMP_temperature;BMP_pressure;BME280_temperature;BME280_humidity;BME280_pressure;Samples;Min_cycle;Max_cycle;Signal;HPM_P1;HPM_P2
2024/03/06 00:01:44;;;;;;;20.23;14.73;;;;;;;3.22;100.00;97655.91;6339803;28;20212;-54
2024/03/06 00:04:46;;;;;;;22.03;14.73;;;;;;;3.03;100.00;97660.06;6337697;28;20232;-48
2024/03/06 00:07:48;;;;;;;23.37;15.50;;;;;;;2.99;100.00;97664.88;6332754;28;20190;-53
2024/03/06 00:10:51;;;;;;;21.83;14.93;;;;;;;2.99;100.00;97664.88;6336391;28;20722;-55
2024/03/06 00:13:53;;;;;;;30.03;20.07;;;;;;;2.91;100.00;97677.41;6331984;28;20340;-51
2024/03/06 00:16:58;;;;;;;30.93;18.30;;;;;;;2.81;100.00;97675.13;6333440;28;20194;-54
2024/03/06 00:20:00;;;;;;;24.27;16.67;;;;;;;2.67;100.00;97679.47;6331035;28;20200;-53
2024/03/06 00:23:02;;;;;;;29.73;18.07;;;;;;;2.57;100.00;97679.00;6333934;28;20210;-53
2024/03/06 00:26:05;;;;;;;27.80;18.33;;;;;;;2.50;100.00;97676.28;6317201;28;20190;-54
2024/03/06 00:29:08;;;;;;;28.67;17.63;;;;;;;2.42;100.00;97675.63;6321076;28;20212;-55
2024/03/06 00:32:11;;;;;;;27.60;17.70;;;;;;;2.39;100.00;97673.38;6332974;28;20721;-54
2024/03/06 00:35:13;;;;;;;30.53;16.97;;;;;;;2.36;100.00;97671.91;6335512;28;20185;-52
2024/03/06 00:38:15;;;;;;;31.23;19.70;;;;;;;2.37;100.00;97685.91;6336297;28;20205;-56
2024/03/06 00:41:19;;;;;;;30.60;16.47;;;;;;;2.15;100.00;97661.44;6331759;28;20741;-54
2024/03/06 00:44:21;;;;;;;25.00;15.83;;;;;;;2.16;100.00;97670.94;6326954;28;20193;-54
2024/03/06 00:47:23;;;;;;;30.37;17.40;;;;;;;2.22;100.00;97681.53;6330428;28;20201;-53
2024/03/06 00:50:25;;;;;;;25.70;16.07;;;;;;;2.12;100.00;97683.66;6326650;28;20818;-56
2024/03/06 00:53:27;;;;;;;25.53;16.57;;;;;;;2.13;100.00;97679.22;6329749;28;20204;-50
2024/03/06 00:56:30;;;;;;;27.87;16.67;;;;;;;2.02;100.00;97677.88;6326120;28;20644;-51
2024/03/06 00:59:32;;;;;;;24.40;16.43;;;;;;;2.00;100.00;97678.06;6336427;28;20200;-53
2024/03/06 01:02:35;;;;;;;27.67;17.03;;;;;;;1.94;100.00;97676.19;6318779;28;20215;-54
2024/03/06 01:05:37;;;;;;;29.57;18.93;;;;;;;1.88;100.00;97676.97;6322484;28;20203;-54
2024/03/06 01:08:40;;;;;;;32.77;20.17;;;;;;;1.92;100.00;97677.38;6327530;28;20188;-47
2024/03/06 01:11:43;;;;;;;33.80;20.13;;;;;;;1.88;100.00;97676.16;6329752;28;20193;-52
2024/03/06 01:14:45;;;;;;;36.37;23.87;;;;;;;1.87;100.00;97664.00;6329363;28;20571;-56
2024/03/06 01:17:47;;;;;;;34.70;22.23;;;;;;;1.90;100.00;97672.31;6333104;28;20586;-50
2024/03/06 01:20:49;;;;;;;34.47;21.43;;;;;;;1.99;100.00;97683.53;6328311;28;20293;-49
2024/03/06 01:23:51;;;;;;;34.83;20.00;;;;;;;2.05;100.00;97680.13;6323464;28;20223;-55
2024/03/06 01:26:53;;;;;;;33.53;20.67;;;;;;;1.89;100.00;97675.13;6333104;28;20671;-51
2024/03/06 01:29:55;;;;;;;34.23;20.93;;;;;;;1.98;100.00;97689.78;6327489;28;20197;-54
2024/03/06 01:32:58;;;;;;;37.60;21.80;;;;;;;1.97;100.00;97686.34;6338232;28;20271;-52
2024/03/06 01:36:00;;;;;;;32.07;19.80;;;;;;;2.04;100.00;97689.03;6314806;28;20194;-55
2024/03/06 01:39:02;;;;;;;37.20;21.47;;;;;;;1.85;100.00;97658.94;6329124;28;20207;-49
2024/03/06 01:42:05;;;;;;;36.13;20.43;;;;;;;2.00;100.00;97685.97;6328905;28;20719;-54
2024/03/06 01:45:08;;;;;;;32.23;19.07;;;;;;;2.13;100.00;97687.91;6327416;28;20666;-49
2024/03/06 01:48:11;;;;;;;34.10;19.47;;;;;;;2.22;100.00;97689.41;6326430;28;20194;-51
2024/03/06 01:51:13;;;;;;;32.73;20.23;;;;;;;2.20;100.00;97688.78;6340523;28;20191;-50
2024/03/06 01:54:16;;;;;;;36.07;21.93;;;;;;;2.23;100.00;97698.91;6338189;28;20196;-54
2024/03/06 01:57:19;;;;;;;38.03;21.10;;;;;;;2.19;100.00;97694.22;6322559;28;20292;-53
2024/03/06 02:00:22;;;;;;;39.77;21.90;;;;;;;2.63;100.00;97690.56;6332429;28;20607;-51
2024/03/06 02:03:25;;;;;;;33.07;21.47;;;;;;;2.72;100.00;97700.75;6333193;28;20260;-48
2024/03/06 02:06:28;;;;;;;41.97;23.17;;;;;;;2.65;100.00;97693.78;6328806;28;20210;-53
2024/03/06 02:09:30;;;;;;;36.40;21.57;;;;;;;2.50;100.00;97662.34;6334576;28;20194;-54
2024/03/06 02:12:32;;;;;;;36.73;22.63;;;;;;;2.96;100.00;97696.88;6332683;28;20190;-56
2024/03/06 02:15:35;;;;;;;38.57;22.60;;;;;;;2.91;100.00;97693.19;6335874;28;21000;-54
2024/03/06 02:18:37;;;;;;;36.90;22.03;;;;;;;2.94;100.00;97692.78;6331822;28;20186;-54
2024/03/06 02:21:39;;;;;;;38.93;23.00;;;;;;;3.05;100.00;97694.88;6332872;28;20213;-55
2024/03/06 02:24:45;;;;;;;44.20;25.47;;;;;;;3.16;100.00;97694.34;6334776;28;20227;-54
2024/03/06 02:27:48;;;;;;;41.63;25.13;;;;;;;3.25;100.00;97694.97;6323727;28;20201;-52
2024/03/06 02:30:51;;;;;;;45.83;24.90;;;;;;;3.43;100.00;97691.84;6329246;28;20220;-55
2024/03/06 02:33:53;;;;;;;48.67;26.70;;;;;;;3.44;100.00;97691.63;6329989;28;20205;-52
2024/03/06 02:36:56;;;;;;;39.70;22.97;;;;;;;3.41;100.00;97686.78;6334825;28;21026;-52
2024/03/06 02:39:59;;;;;;;42.00;25.17;;;;;;;3.79;100.00;97696.84;6330757;28;20206;-52
2024/03/06 02:43:01;;;;;;;65.37;35.80;;;;;;;3.90;100.00;97696.28;6335312;28;20699;-55
2024/03/06 02:46:04;;;;;;;66.73;37.90;;;;;;;4.08;100.00;97696.50;6336473;28;20204;-52
2024/03/06 02:49:06;;;;;;;64.20;35.57;;;;;;;4.34;100.00;97702.84;6342555;28;20204;-53
2024/03/06 02:52:08;;;;;;;62.10;34.23;;;;;;;4.32;100.00;97699.59;6310647;28;20190;-55
2024/03/06 02:55:11;;;;;;;57.87;34.53;;;;;;;4.23;100.00;97700.78;6330119;28;20193;-56
2024/03/06 02:58:13;;;;;;;59.20;33.97;;;;;;;4.12;100.00;97703.00;6332004;28;20539;-50
2024/03/06 03:01:15;;;;;;;54.97;31.80;;;;;;;4.00;100.00;97704.63;6334011;28;20285;-51
2024/03/06 03:04:18;;;;;;;49.83;31.23;;;;;;;3.85;100.00;97706.59;6329922;28;20193;-52
2024/03/06 03:07:20;;;;;;;61.03;34.53;;;;;;;3.77;100.00;97702.31;6329915;28;20194;-53
2024/03/06 03:10:24;;;;;;;55.17;31.37;;;;;;;3.72;100.00;97704.72;6332813;28;20195;-51
2024/03/06 03:13:26;;;;;;;48.97;29.47;;;;;;;3.78;100.00;97698.66;6333924;28;20322;-55
2024/03/06 03:16:29;;;;;;;50.43;30.30;;;;;;;3.56;100.00;97700.63;6328791;28;20186;-54
2024/03/06 03:19:31;;;;;;;50.97;29.70;;;;;;;3.45;100.00;97705.63;6327122;28;20191;-54
2024/03/06 03:22:34;;;;;;;45.90;28.73;;;;;;;3.34;100.00;97705.16;6322796;28;20679;-53
2024/03/06 03:25:36;;;;;;;44.77;26.90;;;;;;;3.28;100.00;97713.84;6318384;28;20339;-52
2024/03/06 03:28:39;;;;;;;46.00;27.57;;;;;;;3.22;100.00;97714.63;6330696;28;20197;-55
2024/03/06 03:31:42;;;;;;;43.90;26.00;;;;;;;3.04;100.00;97715.13;6331771;28;20638;-56
2024/03/06 03:34:44;;;;;;;43.77;26.83;;;;;;;3.10;100.00;97724.91;6329348;28;20190;-58
2024/03/06 03:37:46;;;;;;;44.03;25.77;;;;;;;2.94;100.00;97719.91;6331454;28;20787;-53
2024/03/06 03:40:48;;;;;;;40.60;25.07;;;;;;;2.84;100.00;97720.25;6325688;28;20301;-49
2024/03/06 03:43:51;;;;;;;45.87;27.13;;;;;;;2.85;100.00;97710.53;6325629;28;20859;-54
2024/03/06 03:46:53;;;;;;;43.43;25.87;;;;;;;2.74;100.00;97719.78;6325100;28;20278;-53
2024/03/06 03:49:56;;;;;;;43.37;26.07;;;;;;;2.64;100.00;97719.28;6337732;28;20205;-53
2024/03/06 03:53:10;;;;;;;46.77;27.00;;;;;;;2.51;100.00;97716.53;6327756;28;20646;-54
2024/03/06 03:56:13;;;;;;;42.67;24.97;;;;;;;2.57;100.00;97727.13;6331596;28;20219;-48
2024/03/06 03:59:15;;;;;;;45.03;26.83;;;;;;;2.49;100.00;97721.19;6332001;28;20217;-53
2024/03/06 04:02:18;;;;;;;49.97;27.53;;;;;;;2.65;100.00;97714.84;6332528;28;20211;-55
2024/03/06 04:05:21;;;;;;;43.67;26.13;;;;;;;2.52;100.00;97731.34;6329283;28;20775;-51
2024/03/06 04:08:23;;;;;;;43.50;27.27;;;;;;;2.43;100.00;97732.47;6333175;28;20228;-53
2024/03/06 04:11:25;;;;;;;46.80;28.23;;;;;;;2.41;100.00;97735.25;6339448;28;20317;-53
2024/03/06 04:14:28;;;;;;;48.27;28.50;;;;;;;2.37;100.00;97744.56;6328281;28;20178;-52
2024/03/06 04:17:30;;;;;;;44.27;26.93;;;;;;;2.28;100.00;97745.66;6339707;28;20220;-55
2024/03/06 04:20:32;;;;;;;41.37;26.27;;;;;;;2.33;100.00;97738.03;6336737;28;20197;-55
2024/03/06 04:23:35;;;;;;;40.57;26.70;;;;;;;2.31;100.00;97737.38;6329020;28;20260;-56
2024/03/06 04:26:37;;;;;;;49.53;27.77;;;;;;;2.33;100.00;97741.47;6329854;28;20194;-54
2024/03/06 04:29:39;;;;;;;47.97;27.20;;;;;;;2.29;100.00;97736.78;6330987;28;20201;-50
2024/03/06 04:32:41;;;;;;;48.27;27.37;;;;;;;2.43;100.00;97743.78;6330933;28;20192;-51
2024/03/06 04:35:43;;;;;;;51.53;28.00;;;;;;;2.36;100.00;97739.47;6337950;28;20206;-55
2024/03/06 04:38:46;;;;;;;48.57;26.13;;;;;;;2.22;100.00;97735.91;6339221;28;20182;-49
2024/03/06 04:41:48;;;;;;;46.07;26.67;;;;;;;2.15;100.00;97740.28;6323777;28;20272;-53
2024/03/06 04:44:50;;;;;;;45.77;26.93;;;;;;;2.14;100.00;97747.34;6302830;28;20205;-54
2024/03/06 04:47:52;;;;;;;43.23;26.00;;;;;;;2.11;100.00;97745.06;6326484;28;20195;-49
2024/03/06 04:50:54;;;;;;;46.37;27.97;;;;;;;2.30;100.00;97751.53;6328494;28;20284;-55
2024/03/06 04:53:56;;;;;;;44.57;26.60;;;;;;;2.12;100.00;97738.00;6327616;28;20194;-53
2024/03/06 04:56:58;;;;;;;43.97;26.83;;;;;;;2.21;100.00;97755.28;6330757;28;20201;-51
2024/03/06 05:00:04;;;;;;;42.03;25.67;;;;;;;1.91;100.00;97736.16;6335401;28;20194;-53
2024/03/06 05:03:06;;;;;;;44.17;25.90;;;;;;;1.88;100.00;97754.94;6334547;28;20206;-55
2024/03/06 05:06:25;;;;;;;46.10;26.93;;;;;;;1.70;100.00;97729.88;6329742;28;20216;-49
2024/03/06 05:09:45;;;;;;;42.03;26.03;;;;;;;1.80;100.00;97761.91;6318246;28;20187;-50
2024/03/06 05:13:04;;;;;;;42.73;26.67;;;;;;;1.69;100.00;97746.63;6324162;28;20180;-53
2024/03/06 05:16:24;;;;;;;44.73;26.97;;;;;;;1.73;100.00;97752.34;6326236;28;20272;-53
2024/03/06 05:19:44;;;;;;;45.87;27.70;;;;;;;1.65;100.00;97750.63;6326757;28;20193;-54
2024/03/06 05:23:03;;;;;;;48.13;28.43;;;;;;;1.56;100.00;97754.34;6329031;28;20201;-51
2024/03/06 05:26:23;;;;;;;44.47;27.17;;;;;;;1.59;100.00;97755.81;6336356;28;20182;-55
2024/03/06 05:29:43;;;;;;;52.63;29.67;;;;;;;1.46;100.00;97759.06;6331855;28;20184;-50
2024/03/06 05:33:02;;;;;;;50.50;28.27;;;;;;;1.39;100.00;97763.41;6340300;28;20199;-54
2024/03/06 05:36:21;;;;;;;48.07;27.43;;;;;;;1.44;100.00;97774.19;6333322;28;20175;-51
2024/03/06 05:39:42;;;;;;;51.57;28.03;;;;;;;1.43;100.00;97768.13;6313009;28;20240;-50
2024/03/06 05:43:01;;;;;;;53.63;28.30;;;;;;;1.41;100.00;97767.47;6336730;28;20818;-55
2024/03/06 05:46:21;;;;;;;46.97;27.17;;;;;;;1.41;100.00;97767.47;6334470;28;20941;-54
2024/03/06 05:49:41;;;;;;;51.10;27.50;;;;;;;1.39;100.00;97766.84;6334413;28;20597;-52
2024/03/06 05:53:00;;;;;;;43.37;26.90;;;;;;;1.35;100.00;97770.03;6330783;28;20190;-52
2024/03/06 05:56:20;;;;;;;49.83;28.30;;;;;;;1.34;100.00;97773.66;6327415;28;20186;-52
2024/03/06 05:59:40;;;;;;;46.50;27.07;;;;;;;1.31;100.00;97782.69;6336808;28;20848;-52
2024/03/06 06:02:42;;;;;;;50.50;28.47;;;;;;;1.35;100.00;97788.41;6328368;28;20195;-52
2024/03/06 06:05:44;;;;;;;48.07;29.07;;;;;;;1.33;100.00;97779.88;6323468;28;20205;-51
2024/03/06 06:08:46;;;;;;;55.73;29.43;;;;;;;1.58;100.00;97772.53;6326599;28;20560;-52
2024/03/06 06:11:50;;;;;;;48.30;29.47;;;;;;;1.50;100.00;97794.47;6311822;28;20194;-54
2024/03/06 06:14:52;;;;;;;53.33;29.53;;;;;;;1.42;100.00;97787.47;6335391;28;20195;-52
2024/03/06 06:17:54;;;;;;;47.77;27.33;;;;;;;1.42;100.00;97805.03;6334420;28;20198;-51
2024/03/06 06:20:57;;;;;;;53.37;29.37;;;;;;;1.53;100.00;97813.28;6336515;28;20612;-54
2024/03/06 06:23:59;;;;;;;54.03;29.77;;;;;;;1.51;100.00;97810.00;6339646;28;20200;-55
2024/03/06 06:27:02;;;;;;;50.47;27.77;;;;;;;1.51;100.00;97811.84;6342433;28;20196;-52
2024/03/06 06:30:05;;;;;;;47.90;27.20;;;;;;;1.57;100.00;97818.97;6321915;28;20208;-53
2024/03/06 06:33:09;;;;;;;47.93;27.80;;;;;;;1.60;100.00;97825.69;6343701;28;20348;-55
2024/03/06 06:36:12;;;;;;;52.60;29.90;;;;;;;1.60;100.00;97821.25;6322872;28;20195;-50
2024/03/06 06:39:14;;;;;;;51.27;28.07;;;;;;;1.61;100.00;97824.69;6338041;28;20798;-50
2024/03/06 06:42:16;;;;;;;45.20;27.37;;;;;;;1.62;100.00;97824.50;6331504;28;20321;-53
2024/03/06 06:45:19;;;;;;;52.37;28.17;;;;;;;1.75;100.00;97826.50;6332964;28;20208;-48
2024/03/06 06:48:21;;;;;;;58.13;29.87;;;;;;;1.49;100.00;97791.03;6333570;28;20191;-51
2024/03/06 06:51:23;;;;;;;58.60;30.20;;;;;;;1.65;100.00;97818.09;6312497;28;20192;-52
2024/03/06 06:54:25;;;;;;;49.03;28.23;;;;;;;1.77;100.00;97825.34;6325495;28;20273;-49
2024/03/06 06:57:28;;;;;;;48.70;28.33;;;;;;;1.81;100.00;97826.56;6326040;28;20316;-52
2024/03/06 07:00:30;;;;;;;50.77;28.20;;;;;;;1.85;100.00;97823.59;6343353;28;20206;-54
2024/03/06 07:03:33;;;;;;;53.17;28.93;;;;;;;1.97;100.00;97830.00;6335213;28;20214;-55
2024/03/06 07:06:35;;;;;;;56.70;30.53;;;;;;;2.05;100.00;97824.66;6331835;28;20188;-54
2024/03/06 07:09:37;;;;;;;48.70;26.53;;;;;;;2.21;100.00;97823.63;6314703;28;20287;-52
2024/03/06 07:12:39;;;;;;;48.67;28.23;;;;;;;2.32;100.00;97818.72;6313877;28;20200;-54
2024/03/06 07:15:41;;;;;;;44.70;25.23;;;;;;;2.80;100.00;97823.41;6335957;28;20563;-50
2024/03/06 07:18:43;;;;;;;42.43;25.43;;;;;;;3.02;100.00;97822.41;6338928;28;20194;-55
2024/03/06 07:21:46;;;;;;;47.13;26.03;;;;;;;3.07;100.00;97829.72;6341078;28;20193;-52
2024/03/06 07:24:48;;;;;;;41.70;23.03;;;;;;;3.30;100.00;97830.31;6323336;28;20215;-52
2024/03/06 07:27:50;;;;;;;37.60;21.00;;;;;;;3.42;100.00;97830.59;6337780;28;20193;-50
2024/03/06 07:30:52;;;;;;;35.60;22.50;;;;;;;3.55;100.00;97835.16;6337763;28;20210;-50
2024/03/06 07:33:55;;;;;;;37.93;22.47;;;;;;;3.51;100.00;97833.91;6328264;28;20205;-55
2024/03/06 07:37:01;;;;;;;32.93;21.60;;;;;;;3.88;100.00;97840.59;6329781;28;20846;-53
2024/03/06 07:40:09;;;;;;;31.57;19.77;;;;;;;4.05;100.00;97834.00;6332048;28;20839;-52
2024/03/06 07:43:12;;;;;;;34.37;20.93;;;;;;;4.12;100.00;97831.38;6329321;28;20240;-50
2024/03/06 07:46:14;;;;;;;28.50;19.53;;;;;;;4.36;100.00;97837.97;6318325;28;20196;-55
2024/03/06 07:49:16;;;;;;;28.70;18.93;;;;;;;4.56;100.00;97845.94;6340466;28;20193;-55
2024/03/06 07:52:18;;;;;;;27.70;18.60;;;;;;;4.78;100.00;97836.84;6343178;28;20198;-53
2024/03/06 07:55:21;;;;;;;28.43;18.20;;;;;;;4.88;100.00;97839.09;6330859;28;20222;-48
2024/03/06 07:58:23;;;;;;;26.10;18.13;;;;;;;5.13;100.00;97839.31;6331319;28;20218;-56
2024/03/06 08:01:28;;;;;;;28.07;18.97;;;;;;;5.29;100.00;97846.81;6332185;28;20201;-49
2024/03/06 08:04:31;;;;;;;27.10;17.03;;;;;;;5.46;100.00;97849.84;6326364;28;20241;-56
2024/03/06 08:07:33;;;;;;;31.37;19.63;;;;;;;5.59;99.31;97847.19;6330249;28;20197;-51
2024/03/06 08:10:35;;;;;;;27.90;17.83;;;;;;;5.84;99.77;97850.00;6329390;28;20200;-56
2024/03/06 08:13:41;;;;;;;29.00;17.93;;;;;;;5.94;96.54;97841.66;6314798;28;20201;-49
2024/03/06 08:16:43;;;;;;;27.57;16.93;;;;;;;6.07;94.34;97844.28;6326798;28;20192;-54
2024/03/06 08:19:46;;;;;;;26.53;17.10;;;;;;;6.15;94.50;97849.31;6333935;28;20223;-51
2024/03/06 08:22:49;;;;;;;26.80;16.53;;;;;;;6.35;94.22;97837.84;6304399;28;20410;-53
2024/03/06 08:25:52;;;;;;;24.50;16.37;;;;;;;6.69;92.36;97848.03;6336973;28;20192;-49
2024/03/06 08:28:55;;;;;;;21.50;14.83;;;;;;;6.84;87.50;97855.69;6335200;28;20282;-55
2024/03/06 08:31:59;;;;;;;22.20;15.00;;;;;;;6.96;83.74;97848.69;6309850;28;20262;-54
2024/03/06 08:35:06;;;;;;;20.97;14.23;;;;;;;7.10;80.97;97854.72;6328577;28;20204;-52
2024/03/06 08:38:08;;;;;;;22.57;14.77;;;;;;;7.30;82.67;97864.38;6312417;28;20200;-54
2024/03/06 08:41:11;;;;;;;19.23;13.43;;;;;;;7.25;80.32;97862.34;6333401;28;20223;-48
2024/03/06 08:44:14;;;;;;;22.63;15.13;;;;;;;7.44;77.88;97856.09;6335374;28;20255;-52
2024/03/06 08:47:16;;;;;;;18.97;14.03;;;;;;;7.58;77.85;97863.91;6322219;28;20857;-54
2024/03/06 08:50:19;;;;;;;20.23;13.63;;;;;;;7.70;74.71;97859.53;6340750;28;20222;-51
2024/03/06 08:53:22;;;;;;;20.47;14.30;;;;;;;7.52;76.23;97851.53;6338532;28;20191;-54
2024/03/06 08:56:24;;;;;;;20.00;12.47;;;;;;;7.46;77.46;97864.63;6329600;28;20208;-50
2024/03/06 08:59:26;;;;;;;20.40;14.00;;;;;;;7.70;75.71;97868.28;6328745;28;20203;-55
2024/03/06 09:02:29;;;;;;;21.23;14.13;;;;;;;7.88;76.30;97864.84;6317042;28;20579;-51
2024/03/06 09:05:31;;;;;;;19.63;13.77;;;;;;;7.81;73.77;97860.63;6320064;28;20271;-50
2024/03/06 09:08:33;;;;;;;21.40;13.93;;;;;;;7.95;72.12;97856.81;6334002;28;20193;-53
2024/03/06 09:11:35;;;;;;;21.17;13.97;;;;;;;8.00;71.51;97865.72;6322619;28;20194;-54
2024/03/06 09:14:38;;;;;;;18.60;13.53;;;;;;;8.16;71.65;97856.38;6319923;28;20197;-55
2024/03/06 09:17:41;;;;;;;19.77;13.30;;;;;;;8.32;71.55;97862.91;6340657;28;20581;-52
2024/03/06 09:20:43;;;;;;;17.47;12.67;;;;;;;8.32;72.08;97847.00;6337103;28;20785;-48
2024/03/06 09:23:46;;;;;;;16.97;12.47;;;;;;;8.37;69.07;97856.97;6325930;28;20220;-55
2024/03/06 09:26:49;;;;;;;20.57;12.87;;;;;;;8.28;69.31;97861.75;6331119;28;20197;-53
2024/03/06 09:29:51;;;;;;;19.37;13.83;;;;;;;8.08;70.48;97864.66;6328860;28;20673;-55
2024/03/06 09:32:53;;;;;;;21.80;13.43;;;;;;;8.19;69.76;97858.59;6330047;28;20212;-53
2024/03/06 09:35:57;;;;;;;19.00;13.17;;;;;;;8.35;68.80;97861.69;6329450;28;20204;-49
2024/03/06 09:38:59;;;;;;;20.90;13.90;;;;;;;8.48;69.84;97856.25;6314703;28;20253;-56
2024/03/06 09:42:01;;;;;;;21.10;12.97;;;;;;;8.69;67.34;97861.06;6340494;28;20224;-52
2024/03/06 09:45:04;;;;;;;19.53;13.37;;;;;;;8.74;66.60;97857.72;6339961;28;20248;-52
2024/03/06 09:48:08;;;;;;;21.90;13.63;;;;;;;8.64;66.01;97857.47;6334445;28;20205;-51
2024/03/06 09:51:12;;;;;;;18.80;13.03;;;;;;;8.66;67.11;97840.25;6330396;28;20197;-56
2024/03/06 09:54:14;;;;;;;19.43;13.10;;;;;;;8.91;65.14;97857.88;6332184;28;20687;-57
2024/03/06 09:57:20;;;;;;;16.83;12.00;;;;;;;8.84;64.16;97855.34;6330957;28;20205;-55
2024/03/06 10:00:24;;;;;;;17.17;11.70;;;;;;;8.91;64.44;97855.22;6329426;28;20215;-52
2024/03/06 10:03:27;;;;;;;18.90;12.50;;;;;;;8.93;63.55;97851.31;6322928;28;20201;-54
2024/03/06 10:06:30;;;;;;;19.23;13.57;;;;;;;8.97;64.15;97847.19;6321231;28;20678;-55
2024/03/06 10:09:33;;;;;;;19.93;13.70;;;;;;;9.13;62.74;97842.25;6331389;28;20691;-50
2024/03/06 10:12:35;;;;;;;16.83;13.23;;;;;;;9.43;64.34;97860.78;6327943;28;20651;-51
2024/03/06 10:15:39;;;;;;;20.17;14.17;;;;;;;8.87;64.24;97854.09;6341434;28;20199;-54
2024/03/06 10:18:41;;;;;;;19.70;13.30;;;;;;;9.02;64.20;97846.50;6329593;28;20193;-52
2024/03/06 10:21:45;;;;;;;17.87;12.60;;;;;;;9.07;64.23;97851.94;6335286;28;20685;-54
2024/03/06 10:24:47;;;;;;;18.50;13.03;;;;;;;9.05;64.53;97838.88;6332416;28;20584;-51
2024/03/06 10:28:09;;;;;;;19.27;13.83;;;;;;;9.12;66.43;97822.03;6333112;28;20197;-45
2024/03/06 10:31:12;;;;;;;19.50;14.00;;;;;;;9.48;61.72;97847.59;6338573;28;20194;-56
2024/03/06 10:34:15;;;;;;;18.47;12.80;;;;;;;9.40;63.00;97846.09;6342553;28;20258;-52
2024/03/06 10:37:17;;;;;;;18.90;12.83;;;;;;;9.26;62.18;97839.38;6325443;28;20670;-55
2024/03/06 10:40:20;;;;;;;16.30;11.97;;;;;;;9.35;62.20;97839.84;6344480;28;20691;-51
2024/03/06 10:43:23;;;;;;;20.20;14.33;;;;;;;9.40;61.76;97839.97;6333511;28;20718;-52
2024/03/06 10:46:27;;;;;;;20.83;14.80;;;;;;;9.10;63.73;97832.88;6333184;28;20190;-55
2024/03/06 10:49:32;;;;;;;18.23;13.43;;;;;;;9.49;62.93;97849.22;6335552;28;20283;-53
2024/03/06 10:52:34;;;;;;;17.33;13.23;;;;;;;9.32;60.07;97851.75;6333761;28;20244;-55
2024/03/06 10:55:37;;;;;;;20.63;13.47;;;;;;;9.41;61.23;97853.03;6333285;28;20805;-55
2024/03/06 10:58:41;;;;;;;18.30;14.00;;;;;;;9.42;60.78;97857.31;6331236;28;20196;-49
2024/03/06 11:01:44;;;;;;;21.90;14.60;;;;;;;9.27;63.90;97836.50;6329336;28;20665;-55
2024/03/06 11:04:47;;;;;;;20.20;14.30;;;;;;;9.45;60.39;97840.88;6341207;28;20707;-46
2024/03/06 11:07:50;;;;;;;21.90;13.57;;;;;;;9.13;62.48;97824.44;6343471;28;20193;-55
2024/03/06 11:10:52;;;;;;;16.73;12.83;;;;;;;8.93;64.98;97831.94;6322433;28;20194;-54
2024/03/06 11:14:04;;;;;;;19.10;13.33;;;;;;;9.26;62.65;97842.84;6331588;28;20185;-53
2024/03/06 11:17:09;;;;;;;17.73;12.57;;;;;;;9.38;62.31;97834.88;6329760;28;20692;-53
2024/03/06 11:20:18;;;;;;;15.50;11.60;;;;;;;9.56;61.81;97823.34;6332822;28;20890;-52
2024/03/06 11:23:22;;;;;;;15.57;11.73;;;;;;;9.53;60.33;97797.19;6323422;28;20243;-50
2024/03/06 11:26:24;;;;;;;18.70;13.07;;;;;;;9.59;61.45;97822.06;6333288;28;20200;-52
2024/03/06 11:30:13;;;;;;;17.17;13.83;;;;;;;8.92;62.21;97825.81;6341209;28;20201;-51
2024/03/06 11:33:19;;;;;;;19.30;13.50;;;;;;;9.12;63.44;97824.69;6332901;28;20187;-54
2024/03/06 11:36:28;;;;;;;17.10;13.20;;;;;;;9.15;62.50;97818.91;6336359;28;20262;-56
2024/03/06 11:39:36;;;;;;;16.53;12.57;;;;;;;9.10;61.10;97813.47;6329627;28;20625;-55
2024/03/06 11:42:39;;;;;;;17.23;12.57;;;;;;;9.11;62.80;97805.25;6318886;28;20236;-51
2024/03/06 11:45:44;;;;;;;18.77;11.93;;;;;;;9.20;61.21;97803.88;6331096;28;20218;-50
2024/03/06 11:48:55;;;;;;;16.27;12.13;;;;;;;9.53;59.71;97805.97;6329212;28;20205;-54
2024/03/06 11:52:02;;;;;;;18.80;12.87;;;;;;;9.32;58.88;97811.06;6332356;28;20334;-52
2024/03/06 11:55:05;;;;;;;17.60;12.20;;;;;;;9.27;59.44;97814.41;6329143;28;20332;-55
2024/03/06 11:58:09;;;;;;;16.00;12.37;;;;;;;9.26;60.73;97805.63;6320590;28;20212;-53
2024/03/06 12:01:11;;;;;;;15.73;11.93;;;;;;;9.45;58.84;97798.34;6325373;28;20194;-55
2024/03/06 12:04:13;;;;;;;16.27;11.90;;;;;;;9.70;58.94;97795.44;6323502;28;20294;-52
2024/03/06 12:07:15;;;;;;;18.27;13.63;;;;;;;9.62;57.01;97793.16;6334658;28;20187;-53
2024/03/06 12:10:18;;;;;;;17.90;12.90;;;;;;;9.50;58.96;97792.31;6336142;28;20190;-48
2024/03/06 12:13:21;;;;;;;17.00;11.57;;;;;;;9.68;58.21;97794.88;6312107;28;20564;-55
2024/03/06 12:16:23;;;;;;;15.20;11.83;;;;;;;9.69;59.32;97790.34;6331043;28;20694;-52
2024/03/06 12:19:27;;;;;;;18.33;11.80;;;;;;;9.88;57.34;97785.72;6326914;28;20860;-52
2024/03/06 12:22:30;;;;;;;18.40;13.30;;;;;;;9.91;56.89;97796.69;6307295;28;20617;-52
2024/03/06 12:25:32;;;;;;;21.87;14.77;;;;;;;9.55;58.24;97795.91;6329011;28;20263;-53
2024/03/06 12:28:34;;;;;;;17.37;13.23;;;;;;;9.36;60.14;97783.81;6327321;28;20188;-52
2024/03/06 12:31:41;;;;;;;16.97;12.97;;;;;;;9.37;59.22;97790.72;6336096;28;20195;-52
2024/03/06 12:34:43;;;;;;;17.57;13.40;;;;;;;9.39;58.66;97785.97;6324072;28;20566;-55
2024/03/06 12:37:46;;;;;;;16.07;12.97;;;;;;;9.35;60.36;97800.78;6333950;28;20195;-55
2024/03/06 12:40:48;;;;;;;20.07;13.70;;;;;;;9.18;60.40;97798.00;6331772;28;20201;-49
2024/03/06 12:43:50;;;;;;;19.80;14.33;;;;;;;9.12;60.86;97793.59;6327640;28;20218;-53
2024/03/06 12:46:52;;;;;;;17.63;13.57;;;;;;;9.20;61.09;97795.09;6333785;28;20709;-54
2024/03/06 12:49:54;;;;;;;19.80;13.63;;;;;;;9.18;61.23;97800.66;6327927;28;20201;-54
2024/03/06 12:52:56;;;;;;;18.90;14.13;;;;;;;9.29;61.94;97805.16;6312375;28;20189;-53
2024/03/06 12:55:59;;;;;;;21.87;14.43;;;;;;;9.14;60.84;97790.72;6337401;28;20605;-52
2024/03/06 12:59:01;;;;;;;18.27;13.50;;;;;;;8.84;61.58;97810.19;6339831;28;20568;-55
2024/03/06 13:02:03;;;;;;;19.50;14.17;;;;;;;8.77;63.19;97799.66;6336282;28;20784;-53
2024/03/06 13:05:06;;;;;;;19.43;14.13;;;;;;;9.09;61.52;97796.72;6331624;28;20202;-55
2024/03/06 13:08:09;;;;;;;19.57;13.73;;;;;;;9.35;62.02;97798.09;6329023;28;20699;-49
2024/03/06 13:11:11;;;;;;;20.13;14.53;;;;;;;9.38;61.10;97784.38;6331551;28;20708;-50
2024/03/06 13:14:14;;;;;;;24.27;15.23;;;;;;;9.44;61.00;97790.59;6327041;28;20178;-52
2024/03/06 13:17:16;;;;;;;20.77;15.63;;;;;;;9.34;62.51;97801.00;6321283;28;20571;-54
2024/03/06 13:20:19;;;;;;;20.00;15.10;;;;;;;9.21;63.55;97788.75;6339333;28;20190;-51
2024/03/06 13:23:22;;;;;;;20.50;14.20;;;;;;;9.17;64.30;97793.72;6339485;28;20221;-55
2024/03/06 13:26:24;;;;;;;23.10;16.37;;;;;;;9.14;63.23;97788.84;6338835;28;20194;-56
2024/03/06 13:29:27;;;;;;;20.37;15.03;;;;;;;9.00;62.96;97792.75;6322530;28;20202;-54
2024/03/06 13:32:29;;;;;;;18.97;13.87;;;;;;;8.95;63.52;97793.44;6320742;28;20193;-49
2024/03/06 13:35:31;;;;;;;20.90;14.67;;;;;;;8.83;63.20;97789.16;6331392;28;20200;-54
2024/03/06 13:38:33;;;;;;;18.57;14.30;;;;;;;8.87;64.77;97793.00;6329509;28;20197;-54
2024/03/06 13:41:36;;;;;;;22.07;14.87;;;;;;;8.52;64.36;97783.06;6322349;28;20233;-55
2024/03/06 13:44:38;;;;;;;21.93;15.00;;;;;;;8.49;64.97;97794.94;6302543;28;20297;-56
2024/03/06 13:47:42;;;;;;;20.60;14.27;;;;;;;8.56;66.13;97788.72;6308300;28;20632;-45
2024/03/06 13:50:45;;;;;;;19.97;15.00;;;;;;;8.57;65.61;97790.34;6302028;28;20718;-55
2024/03/06 13:53:48;;;;;;;18.57;14.30;;;;;;;8.49;66.83;97786.97;6300731;28;20700;-53
2024/03/06 13:56:50;;;;;;;22.43;14.57;;;;;;;8.48;66.20;97795.19;6302265;28;20197;-55
2024/03/06 13:59:52;;;;;;;21.93;15.03;;;;;;;8.39;66.09;97784.06;6312794;28;20203;-55
2024/03/06 14:02:55;;;;;;;20.07;14.23;;;;;;;8.37;66.86;97783.47;6310088;28;20839;-54
2024/03/06 14:05:57;;;;;;;22.33;14.40;;;;;;;8.45;67.42;97780.50;6309219;28;20233;-53
2024/03/06 14:08:59;;;;;;;19.10;13.93;;;;;;;8.34;66.47;97760.00;6311611;28;20200;-53
2024/03/06 14:12:02;;;;;;;20.70;13.57;;;;;;;8.11;67.16;97771.31;6306051;28;20841;-53